sensor_id;sensor_type;location;lat;lon;timestamp;P1;durP1;ratioP1;P2;durP2;ratioP2
61085;SDS011;46967;48.876;2.136;2022-12-29T00:02:04;2.13;;;0.52;;
61085;SDS011;46967;48.876;2.136;2022-12-29T00:04:30;1.65;;;0.50;;
61085;SDS011;46967;48.876;2.136;2022-12-29T00:06:55;2.83;;;1.00;;
61085;SDS011;46967;48.876;2.136;2022-12-29T00:09:21;2.95;;;0.50;;
61085;SDS011;46967;48.876;2.136;2022-12-29T00:11:46;4.30;;;0.85;;
61085;SDS011;46967;48.876;2.136;2022-12-29T00:14:12;3.78;;;0.60;;
61085;SDS011;46967;48.876;2.136;2022-12-29T00:16:57;2.38;;;0.88;;
61085;SDS011;46967;48.876;2.136;2022-12-29T00:19:22;1.50;;;0.40;;
61085;SDS011;46967;48.876;2.136;2022-12-29T00:22:11;2.38;;;0.60;;
61085;SDS011;46967;48.876;2.136;2022-12-29T00:24:55;3.85;;;0.40;;
61085;SDS011;46967;48.876;2.136;2022-12-29T00:27:31;3.65;;;0.88;;
61085;SDS011;46967;48.876;2.136;2022-12-29T00:30:20;3.50;;;0.70;;
61085;SDS011;46967;48.876;2.136;2022-12-29T00:33:19;3.13;;;0.98;;
61085;SDS011;46967;48.876;2.136;2022-12-29T00:36:09;5.90;;;0.80;;
61085;SDS011;46967;48.876;2.136;2022-12-29T00:38:40;1.02;;;0.52;;
61085;SDS011;46967;48.876;2.136;2022-12-29T00:41:29;5.07;;;0.87;;
61085;SDS011;46967;48.876;2.136;2022-12-29T00:44:13;3.22;;;0.60;;
61085;SDS011;46967;48.876;2.136;2022-12-29T00:46:40;3.20;;;0.68;;
61085;SDS011;46967;48.876;2.136;2022-12-29T00:49:07;2.67;;;0.60;;
61085;SDS011;46967;48.876;2.136;2022-12-29T00:51:54;4.15;;;0.60;;
61085;SDS011;46967;48.876;2.136;2022-12-29T00:54:20;1.55;;;0.43;;
61085;SDS011;46967;48.876;2.136;2022-12-29T00:56:47;4.95;;;0.40;;
61085;SDS011;46967;48.876;2.136;2022-12-29T00:59:13;1.08;;;0.30;;
61085;SDS011;46967;48.876;2.136;2022-12-29T01:01:38;1.45;;;0.30;;
61085;SDS011;46967;48.876;2.136;2022-12-29T01:04:04;10.73;;;1.83;;
61085;SDS011;46967;48.876;2.136;2022-12-29T01:06:30;3.83;;;0.50;;
61085;SDS011;46967;48.876;2.136;2022-12-29T01:08:56;1.38;;;0.50;;
61085;SDS011;46967;48.876;2.136;2022-12-29T01:11:40;2.88;;;0.60;;
61085;SDS011;46967;48.876;2.136;2022-12-29T01:14:06;3.28;;;0.93;;
61085;SDS011;46967;48.876;2.136;2022-12-29T01:16:32;1.70;;;0.70;;
61085;SDS011;46967;48.876;2.136;2022-12-29T01:18:58;2.28;;;1.05;;
61085;SDS011;46967;48.876;2.136;2022-12-29T01:21:23;1.85;;;0.43;;
61085;SDS011;46967;48.876;2.136;2022-12-29T01:23:49;3.70;;;0.90;;
61085;SDS011;46967;48.876;2.136;2022-12-29T01:26:15;2.30;;;0.50;;
61085;SDS011;46967;48.876;2.136;2022-12-29T01:28:41;3.47;;;0.50;;
61085;SDS011;46967;48.876;2.136;2022-12-29T01:31:07;1.08;;;0.30;;
61085;SDS011;46967;48.876;2.136;2022-12-29T01:33:34;2.15;;;0.40;;
61085;SDS011;46967;48.876;2.136;2022-12-29T01:36:09;6.05;;;0.70;;
61085;SDS011;46967;48.876;2.136;2022-12-29T01:38:39;1.48;;;0.38;;
61085;SDS011;46967;48.876;2.136;2022-12-29T01:41:05;1.33;;;0.32;;
61085;SDS011;46967;48.876;2.136;2022-12-29T01:46:31;2.93;;;0.63;;
61085;SDS011;46967;48.876;2.136;2022-12-29T01:51:33;1.20;;;0.30;;
61085;SDS011;46967;48.876;2.136;2022-12-29T01:54:02;2.88;;;0.40;;
61085;SDS011;46967;48.876;2.136;2022-12-29T01:56:32;4.85;;;0.65;;
61085;SDS011;46967;48.876;2.136;2022-12-29T01:59:01;1.65;;;0.40;;
61085;SDS011;46967;48.876;2.136;2022-12-29T02:01:31;4.70;;;0.52;;
61085;SDS011;46967;48.876;2.136;2022-12-29T02:03:57;2.25;;;0.40;;
61085;SDS011;46967;48.876;2.136;2022-12-29T02:06:28;1.08;;;0.32;;
61085;SDS011;46967;48.876;2.136;2022-12-29T02:08:58;7.40;;;0.73;;
61085;SDS011;46967;48.876;2.136;2022-12-29T02:11:25;3.45;;;0.30;;
61085;SDS011;46967;48.876;2.136;2022-12-29T02:13:52;4.75;;;0.35;;
61085;SDS011;46967;48.876;2.136;2022-12-29T02:22:40;4.32;;;0.50;;
61085;SDS011;46967;48.876;2.136;2022-12-29T02:25:30;3.13;;;0.47;;
61085;SDS011;46967;48.876;2.136;2022-12-29T02:34:20;4.38;;;0.35;;
61085;SDS011;46967;48.876;2.136;2022-12-29T02:37:26;4.47;;;0.50;;
61085;SDS011;46967;48.876;2.136;2022-12-29T02:51:03;3.47;;;0.75;;
61085;SDS011;46967;48.876;2.136;2022-12-29T02:53:32;4.35;;;0.47;;
61085;SDS011;46967;48.876;2.136;2022-12-29T02:56:18;2.58;;;0.38;;
61085;SDS011;46967;48.876;2.136;2022-12-29T02:58:43;4.90;;;0.65;;
61085;SDS011;46967;48.876;2.136;2022-12-29T03:04:43;7.05;;;1.08;;
61085;SDS011;46967;48.876;2.136;2022-12-29T03:13:02;5.80;;;0.85;;
61085;SDS011;46967;48.876;2.136;2022-12-29T03:21:31;5.85;;;0.60;;
61085;SDS011;46967;48.876;2.136;2022-12-29T03:25:10;4.15;;;0.80;;
61085;SDS011;46967;48.876;2.136;2022-12-29T03:27:22;4.00;;;0.90;;
61085;SDS011;46967;48.876;2.136;2022-12-29T03:30:00;5.05;;;0.90;;
61085;SDS011;46967;48.876;2.136;2022-12-29T03:33:01;4.80;;;0.63;;
61085;SDS011;46967;48.876;2.136;2022-12-29T03:35:21;1.83;;;0.50;;
61085;SDS011;46967;48.876;2.136;2022-12-29T03:37:55;5.20;;;0.70;;
61085;SDS011;46967;48.876;2.136;2022-12-29T03:40:23;7.18;;;1.05;;
61085;SDS011;46967;48.876;2.136;2022-12-29T03:42:49;7.28;;;1.25;;
61085;SDS011;46967;48.876;2.136;2022-12-29T03:45:15;2.72;;;0.80;;
61085;SDS011;46967;48.876;2.136;2022-12-29T03:47:41;6.15;;;0.95;;
61085;SDS011;46967;48.876;2.136;2022-12-29T03:50:06;11.68;;;1.50;;
61085;SDS011;46967;48.876;2.136;2022-12-29T03:52:33;4.13;;;1.00;;
61085;SDS011;46967;48.876;2.136;2022-12-29T03:54:59;9.38;;;0.80;;
61085;SDS011;46967;48.876;2.136;2022-12-29T03:57:24;10.18;;;1.30;;
61085;SDS011;46967;48.876;2.136;2022-12-29T03:59:49;5.93;;;1.00;;
61085;SDS011;46967;48.876;2.136;2022-12-29T04:02:15;6.70;;;1.00;;
61085;SDS011;46967;48.876;2.136;2022-12-29T04:04:40;8.38;;;0.98;;
61085;SDS011;46967;48.876;2.136;2022-12-29T04:07:05;4.63;;;0.93;;
61085;SDS011;46967;48.876;2.136;2022-12-29T04:09:31;5.22;;;0.82;;
61085;SDS011;46967;48.876;2.136;2022-12-29T04:11:56;8.32;;;0.82;;
61085;SDS011;46967;48.876;2.136;2022-12-29T04:14:21;4.65;;;0.90;;
61085;SDS011;46967;48.876;2.136;2022-12-29T04:16:47;6.78;;;0.80;;
61085;SDS011;46967;48.876;2.136;2022-12-29T04:19:12;5.50;;;1.05;;
61085;SDS011;46967;48.876;2.136;2022-12-29T04:21:37;7.55;;;1.00;;
61085;SDS011;46967;48.876;2.136;2022-12-29T04:24:03;5.18;;;0.80;;
61085;SDS011;46967;48.876;2.136;2022-12-29T04:26:31;4.60;;;1.02;;
61085;SDS011;46967;48.876;2.136;2022-12-29T04:28:56;8.18;;;1.17;;
61085;SDS011;46967;48.876;2.136;2022-12-29T04:31:22;5.88;;;1.10;;
61085;SDS011;46967;48.876;2.136;2022-12-29T04:33:47;9.63;;;1.40;;
61085;SDS011;46967;48.876;2.136;2022-12-29T04:36:12;6.07;;;0.90;;
61085;SDS011;46967;48.876;2.136;2022-12-29T04:38:38;3.67;;;0.80;;
61085;SDS011;46967;48.876;2.136;2022-12-29T04:41:03;7.68;;;0.90;;
61085;SDS011;46967;48.876;2.136;2022-12-29T04:43:29;6.43;;;1.05;;
61085;SDS011;46967;48.876;2.136;2022-12-29T04:45:54;5.15;;;0.82;;
61085;SDS011;46967;48.876;2.136;2022-12-29T04:48:20;7.78;;;1.00;;
61085;SDS011;46967;48.876;2.136;2022-12-29T04:50:46;4.30;;;0.75;;
61085;SDS011;46967;48.876;2.136;2022-12-29T04:53:14;4.32;;;1.05;;
61085;SDS011;46967;48.876;2.136;2022-12-29T04:55:39;4.35;;;1.23;;
61085;SDS011;46967;48.876;2.136;2022-12-29T04:58:05;6.63;;;0.70;;
61085;SDS011;46967;48.876;2.136;2022-12-29T05:00:30;5.05;;;0.88;;
61085;SDS011;46967;48.876;2.136;2022-12-29T05:02:55;4.43;;;1.00;;
61085;SDS011;46967;48.876;2.136;2022-12-29T05:05:21;4.25;;;0.82;;
61085;SDS011;46967;48.876;2.136;2022-12-29T05:07:46;4.68;;;0.93;;
61085;SDS011;46967;48.876;2.136;2022-12-29T05:10:11;7.50;;;1.38;;
61085;SDS011;46967;48.876;2.136;2022-12-29T05:12:37;10.10;;;1.10;;
61085;SDS011;46967;48.876;2.136;2022-12-29T05:15:03;8.35;;;1.02;;
61085;SDS011;46967;48.876;2.136;2022-12-29T05:17:31;5.45;;;0.80;;
61085;SDS011;46967;48.876;2.136;2022-12-29T05:19:56;6.55;;;1.20;;
61085;SDS011;46967;48.876;2.136;2022-12-29T05:22:22;5.47;;;1.00;;
61085;SDS011;46967;48.876;2.136;2022-12-29T05:24:47;4.82;;;0.80;;
61085;SDS011;46967;48.876;2.136;2022-12-29T05:27:13;6.03;;;0.77;;
61085;SDS011;46967;48.876;2.136;2022-12-29T05:29:39;1.67;;;0.60;;
61085;SDS011;46967;48.876;2.136;2022-12-29T05:32:04;4.97;;;1.13;;
61085;SDS011;46967;48.876;2.136;2022-12-29T05:34:30;7.07;;;1.63;;
61085;SDS011;46967;48.876;2.136;2022-12-29T05:36:55;6.88;;;1.02;;
61085;SDS011;46967;48.876;2.136;2022-12-29T05:39:21;14.50;;;1.55;;
61085;SDS011;46967;48.876;2.136;2022-12-29T05:41:46;5.75;;;1.48;;
61085;SDS011;46967;48.876;2.136;2022-12-29T05:44:12;10.05;;;1.40;;
61085;SDS011;46967;48.876;2.136;2022-12-29T05:46:37;10.38;;;1.88;;
61085;SDS011;46967;48.876;2.136;2022-12-29T05:49:02;8.18;;;0.95;;
61085;SDS011;46967;48.876;2.136;2022-12-29T05:51:28;8.65;;;1.77;;
61085;SDS011;46967;48.876;2.136;2022-12-29T05:53:53;9.30;;;1.77;;
61085;SDS011;46967;48.876;2.136;2022-12-29T05:56:18;10.73;;;1.35;;
61085;SDS011;46967;48.876;2.136;2022-12-29T05:58:44;7.85;;;1.40;;
61085;SDS011;46967;48.876;2.136;2022-12-29T06:01:09;8.95;;;1.17;;
61085;SDS011;46967;48.876;2.136;2022-12-29T06:03:34;5.57;;;1.27;;
61085;SDS011;46967;48.876;2.136;2022-12-29T06:06:00;11.85;;;1.38;;
61085;SDS011;46967;48.876;2.136;2022-12-29T06:08:25;9.50;;;1.35;;
61085;SDS011;46967;48.876;2.136;2022-12-29T06:10:51;8.90;;;1.52;;
61085;SDS011;46967;48.876;2.136;2022-12-29T06:13:16;10.82;;;1.58;;
61085;SDS011;46967;48.876;2.136;2022-12-29T06:15:41;8.52;;;1.77;;
61085;SDS011;46967;48.876;2.136;2022-12-29T06:18:07;9.13;;;1.33;;
61085;SDS011;46967;48.876;2.136;2022-12-29T06:20:32;10.00;;;1.20;;
61085;SDS011;46967;48.876;2.136;2022-12-29T06:22:58;7.70;;;1.35;;
61085;SDS011;46967;48.876;2.136;2022-12-29T06:25:23;11.80;;;1.55;;
61085;SDS011;46967;48.876;2.136;2022-12-29T06:27:49;6.97;;;0.95;;
61085;SDS011;46967;48.876;2.136;2022-12-29T06:30:14;9.57;;;1.20;;
61085;SDS011;46967;48.876;2.136;2022-12-29T06:32:40;10.63;;;1.65;;
61085;SDS011;46967;48.876;2.136;2022-12-29T06:35:05;7.65;;;1.27;;
61085;SDS011;46967;48.876;2.136;2022-12-29T06:37:31;8.20;;;1.33;;
61085;SDS011;46967;48.876;2.136;2022-12-29T06:39:57;9.48;;;1.88;;
61085;SDS011;46967;48.876;2.136;2022-12-29T06:42:22;10.27;;;1.65;;
61085;SDS011;46967;48.876;2.136;2022-12-29T06:44:48;8.77;;;1.08;;
61085;SDS011;46967;48.876;2.136;2022-12-29T06:47:13;5.00;;;1.10;;
61085;SDS011;46967;48.876;2.136;2022-12-29T06:49:38;8.48;;;1.20;;
61085;SDS011;46967;48.876;2.136;2022-12-29T06:52:04;8.68;;;1.25;;
61085;SDS011;46967;48.876;2.136;2022-12-29T06:54:32;8.57;;;1.50;;
61085;SDS011;46967;48.876;2.136;2022-12-29T06:56:58;8.80;;;1.70;;
61085;SDS011;46967;48.876;2.136;2022-12-29T06:59:25;9.13;;;1.25;;
61085;SDS011;46967;48.876;2.136;2022-12-29T07:01:50;8.23;;;1.58;;
61085;SDS011;46967;48.876;2.136;2022-12-29T07:04:16;9.43;;;1.70;;
61085;SDS011;46967;48.876;2.136;2022-12-29T07:06:42;8.80;;;1.42;;
61085;SDS011;46967;48.876;2.136;2022-12-29T07:09:07;6.85;;;1.15;;
61085;SDS011;46967;48.876;2.136;2022-12-29T07:11:33;11.57;;;1.83;;
61085;SDS011;46967;48.876;2.136;2022-12-29T07:13:59;8.15;;;1.48;;
61085;SDS011;46967;48.876;2.136;2022-12-29T07:16:24;7.88;;;1.52;;
61085;SDS011;46967;48.876;2.136;2022-12-29T07:18:49;6.38;;;1.20;;
61085;SDS011;46967;48.876;2.136;2022-12-29T07:21:15;9.32;;;1.38;;
61085;SDS011;46967;48.876;2.136;2022-12-29T07:23:41;5.15;;;1.05;;
61085;SDS011;46967;48.876;2.136;2022-12-29T07:26:07;5.72;;;1.38;;
61085;SDS011;46967;48.876;2.136;2022-12-29T07:28:34;7.88;;;1.30;;
61085;SDS011;46967;48.876;2.136;2022-12-29T07:31:00;7.50;;;1.15;;
61085;SDS011;46967;48.876;2.136;2022-12-29T07:33:29;15.43;;;1.30;;
61085;SDS011;46967;48.876;2.136;2022-12-29T07:35:56;8.73;;;1.45;;
61085;SDS011;46967;48.876;2.136;2022-12-29T07:38:22;6.43;;;1.27;;
61085;SDS011;46967;48.876;2.136;2022-12-29T07:40:47;5.75;;;1.45;;
61085;SDS011;46967;48.876;2.136;2022-12-29T07:43:13;9.15;;;1.05;;
61085;SDS011;46967;48.876;2.136;2022-12-29T07:45:38;8.63;;;1.10;;
61085;SDS011;46967;48.876;2.136;2022-12-29T07:48:04;15.85;;;1.83;;
61085;SDS011;46967;48.876;2.136;2022-12-29T07:50:32;6.63;;;1.08;;
61085;SDS011;46967;48.876;2.136;2022-12-29T07:52:58;7.18;;;1.27;;
61085;SDS011;46967;48.876;2.136;2022-12-29T07:55:24;5.57;;;1.02;;
61085;SDS011;46967;48.876;2.136;2022-12-29T07:57:49;7.70;;;1.65;;
61085;SDS011;46967;48.876;2.136;2022-12-29T08:00:14;7.75;;;1.20;;
61085;SDS011;46967;48.876;2.136;2022-12-29T08:02:40;8.57;;;1.25;;
61085;SDS011;46967;48.876;2.136;2022-12-29T08:05:05;7.25;;;2.42;;
61085;SDS011;46967;48.876;2.136;2022-12-29T08:07:31;10.30;;;1.50;;
61085;SDS011;46967;48.876;2.136;2022-12-29T08:09:56;11.98;;;1.63;;
61085;SDS011;46967;48.876;2.136;2022-12-29T08:12:22;12.02;;;1.35;;
61085;SDS011;46967;48.876;2.136;2022-12-29T08:14:48;6.35;;;1.05;;
61085;SDS011;46967;48.876;2.136;2022-12-29T08:17:13;10.20;;;1.65;;
61085;SDS011;46967;48.876;2.136;2022-12-29T08:19:38;15.52;;;1.33;;
61085;SDS011;46967;48.876;2.136;2022-12-29T08:22:04;8.73;;;1.85;;
61085;SDS011;46967;48.876;2.136;2022-12-29T08:24:30;14.23;;;2.50;;
61085;SDS011;46967;48.876;2.136;2022-12-29T08:26:55;8.82;;;1.35;;
61085;SDS011;46967;48.876;2.136;2022-12-29T08:29:21;12.70;;;2.30;;
61085;SDS011;46967;48.876;2.136;2022-12-29T08:31:46;15.63;;;1.80;;
61085;SDS011;46967;48.876;2.136;2022-12-29T08:34:12;8.77;;;2.10;;
61085;SDS011;46967;48.876;2.136;2022-12-29T08:36:37;10.07;;;1.65;;
61085;SDS011;46967;48.876;2.136;2022-12-29T08:39:03;12.00;;;2.17;;
61085;SDS011;46967;48.876;2.136;2022-12-29T08:41:28;9.02;;;1.63;;
61085;SDS011;46967;48.876;2.136;2022-12-29T08:43:53;12.07;;;2.22;;
61085;SDS011;46967;48.876;2.136;2022-12-29T08:46:19;13.32;;;2.13;;
61085;SDS011;46967;48.876;2.136;2022-12-29T08:48:44;12.68;;;2.20;;
61085;SDS011;46967;48.876;2.136;2022-12-29T08:51:10;11.35;;;1.80;;
61085;SDS011;46967;48.876;2.136;2022-12-29T08:53:35;12.73;;;2.10;;
61085;SDS011;46967;48.876;2.136;2022-12-29T08:56:01;21.42;;;2.00;;
61085;SDS011;46967;48.876;2.136;2022-12-29T08:58:28;14.30;;;1.85;;
61085;SDS011;46967;48.876;2.136;2022-12-29T09:00:54;10.80;;;1.42;;
61085;SDS011;46967;48.876;2.136;2022-12-29T09:03:21;8.55;;;1.42;;
61085;SDS011;46967;48.876;2.136;2022-12-29T09:05:50;12.40;;;2.00;;
61085;SDS011;46967;48.876;2.136;2022-12-29T09:08:17;11.70;;;1.67;;
61085;SDS011;46967;48.876;2.136;2022-12-29T09:10:43;12.88;;;2.30;;
61085;SDS011;46967;48.876;2.136;2022-12-29T09:13:09;12.02;;;1.80;;
61085;SDS011;46967;48.876;2.136;2022-12-29T09:15:35;15.90;;;2.92;;
61085;SDS011;46967;48.876;2.136;2022-12-29T09:18:00;12.70;;;2.00;;
61085;SDS011;46967;48.876;2.136;2022-12-29T09:20:25;12.98;;;1.98;;
61085;SDS011;46967;48.876;2.136;2022-12-29T09:22:51;12.32;;;2.10;;
61085;SDS011;46967;48.876;2.136;2022-12-29T09:25:16;12.10;;;1.95;;
61085;SDS011;46967;48.876;2.136;2022-12-29T09:27:42;14.25;;;1.88;;
61085;SDS011;46967;48.876;2.136;2022-12-29T09:30:08;13.93;;;1.90;;
61085;SDS011;46967;48.876;2.136;2022-12-29T09:32:36;18.17;;;2.17;;
61085;SDS011;46967;48.876;2.136;2022-12-29T09:35:01;9.50;;;1.50;;
61085;SDS011;46967;48.876;2.136;2022-12-29T09:37:27;11.18;;;1.52;;
61085;SDS011;46967;48.876;2.136;2022-12-29T09:39:53;11.68;;;1.88;;
61085;SDS011;46967;48.876;2.136;2022-12-29T09:45:09;16.67;;;1.90;;
61085;SDS011;46967;48.876;2.136;2022-12-29T09:47:40;16.05;;;2.67;;
61085;SDS011;46967;48.876;2.136;2022-12-29T09:50:23;12.38;;;1.85;;
61085;SDS011;46967;48.876;2.136;2022-12-29T09:52:54;13.20;;;2.50;;
61085;SDS011;46967;48.876;2.136;2022-12-29T09:55:39;9.15;;;1.73;;
61085;SDS011;46967;48.876;2.136;2022-12-29T10:04:03;12.50;;;1.63;;
61085;SDS011;46967;48.876;2.136;2022-12-29T10:09:38;14.05;;;2.10;;
61085;SDS011;46967;48.876;2.136;2022-12-29T10:12:21;16.02;;;2.22;;
61085;SDS011;46967;48.876;2.136;2022-12-29T10:15:18;17.15;;;2.33;;
61085;SDS011;46967;48.876;2.136;2022-12-29T10:17:52;18.33;;;2.40;;
61085;SDS011;46967;48.876;2.136;2022-12-29T10:23:22;11.65;;;1.90;;
61085;SDS011;46967;48.876;2.136;2022-12-29T10:25:56;16.05;;;2.15;;
61085;SDS011;46967;48.876;2.136;2022-12-29T10:28:37;16.08;;;2.20;;
61085;SDS011;46967;48.876;2.136;2022-12-29T10:31:16;12.77;;;1.88;;
61085;SDS011;46967;48.876;2.136;2022-12-29T10:33:48;15.52;;;2.22;;
61085;SDS011;46967;48.876;2.136;2022-12-29T10:36:38;9.93;;;1.83;;
61085;SDS011;46967;48.876;2.136;2022-12-29T10:44:23;17.75;;;2.60;;
61085;SDS011;46967;48.876;2.136;2022-12-29T10:47:01;14.80;;;2.60;;
61085;SDS011;46967;48.876;2.136;2022-12-29T10:49:30;10.75;;;2.55;;
61085;SDS011;46967;48.876;2.136;2022-12-29T10:52:02;15.38;;;2.17;;
61085;SDS011;46967;48.876;2.136;2022-12-29T10:54:30;10.80;;;2.00;;
61085;SDS011;46967;48.876;2.136;2022-12-29T10:57:07;12.70;;;2.10;;
61085;SDS011;46967;48.876;2.136;2022-12-29T10:59:36;11.88;;;2.25;;
61085;SDS011;46967;48.876;2.136;2022-12-29T11:07:01;13.63;;;2.45;;
61085;SDS011;46967;48.876;2.136;2022-12-29T11:09:29;19.38;;;2.08;;
61085;SDS011;46967;48.876;2.136;2022-12-29T11:11:57;15.50;;;3.45;;
61085;SDS011;46967;48.876;2.136;2022-12-29T11:14:27;14.35;;;2.17;;
61085;SDS011;46967;48.876;2.136;2022-12-29T11:17:37;13.20;;;2.20;;
61085;SDS011;46967;48.876;2.136;2022-12-29T11:19:43;12.63;;;1.98;;
61085;SDS011;46967;48.876;2.136;2022-12-29T11:22:21;13.27;;;2.13;;
61085;SDS011;46967;48.876;2.136;2022-12-29T11:24:50;15.00;;;2.03;;
61085;SDS011;46967;48.876;2.136;2022-12-29T11:27:24;14.45;;;2.03;;
61085;SDS011;46967;48.876;2.136;2022-12-29T11:29:51;9.77;;;1.63;;
61085;SDS011;46967;48.876;2.136;2022-12-29T11:34:51;28.42;;;2.58;;
61085;SDS011;46967;48.876;2.136;2022-12-29T11:37:28;15.15;;;2.47;;
61085;SDS011;46967;48.876;2.136;2022-12-29T11:42:40;15.60;;;2.28;;
61085;SDS011;46967;48.876;2.136;2022-12-29T11:47:49;12.10;;;2.30;;
61085;SDS011;46967;48.876;2.136;2022-12-29T11:50:25;10.80;;;2.03;;
61085;SDS011;46967;48.876;2.136;2022-12-29T11:53:01;21.23;;;3.13;;
61085;SDS011;46967;48.876;2.136;2022-12-29T11:55:29;14.38;;;2.17;;
61085;SDS011;46967;48.876;2.136;2022-12-29T11:57:57;14.18;;;2.38;;
61085;SDS011;46967;48.876;2.136;2022-12-29T12:00:26;12.57;;;1.92;;
61085;SDS011;46967;48.876;2.136;2022-12-29T12:02:57;16.20;;;2.28;;
61085;SDS011;46967;48.876;2.136;2022-12-29T12:08:23;13.07;;;2.05;;
61085;SDS011;46967;48.876;2.136;2022-12-29T12:10:54;14.05;;;2.10;;
61085;SDS011;46967;48.876;2.136;2022-12-29T12:13:34;10.57;;;2.22;;
61085;SDS011;46967;48.876;2.136;2022-12-29T12:16:27;11.98;;;2.17;;
61085;SDS011;46967;48.876;2.136;2022-12-29T12:19:12;13.40;;;2.30;;
61085;SDS011;46967;48.876;2.136;2022-12-29T12:21:46;15.75;;;3.38;;
61085;SDS011;46967;48.876;2.136;2022-12-29T12:27:51;7.25;;;1.70;;
61085;SDS011;46967;48.876;2.136;2022-12-29T12:30:14;20.45;;;2.20;;
61085;SDS011;46967;48.876;2.136;2022-12-29T12:40:58;9.38;;;1.70;;
61085;SDS011;46967;48.876;2.136;2022-12-29T13:07:57;10.50;;;1.90;;
61085;SDS011;46967;48.876;2.136;2022-12-29T13:10:41;11.20;;;2.08;;
61085;SDS011;46967;48.876;2.136;2022-12-29T13:16:48;13.82;;;2.10;;
61085;SDS011;46967;48.876;2.136;2022-12-29T13:22:15;12.35;;;2.20;;
61085;SDS011;46967;48.876;2.136;2022-12-29T13:27:34;11.65;;;2.28;;
61085;SDS011;46967;48.876;2.136;2022-12-29T13:30:15;13.60;;;2.50;;
61085;SDS011;46967;48.876;2.136;2022-12-29T13:35:34;12.07;;;2.28;;
61085;SDS011;46967;48.876;2.136;2022-12-29T13:38:05;17.63;;;3.63;;
61085;SDS011;46967;48.876;2.136;2022-12-29T13:40:38;12.55;;;2.58;;
61085;SDS011;46967;48.876;2.136;2022-12-29T13:43:09;19.23;;;3.17;;
61085;SDS011;46967;48.876;2.136;2022-12-29T13:45:37;14.82;;;2.55;;
61085;SDS011;46967;48.876;2.136;2022-12-29T13:48:25;18.48;;;2.22;;
61085;SDS011;46967;48.876;2.136;2022-12-29T13:50:57;12.13;;;1.83;;
61085;SDS011;46967;48.876;2.136;2022-12-29T13:56:15;12.30;;;2.97;;
61085;SDS011;46967;48.876;2.136;2022-12-29T13:59:03;15.50;;;3.15;;
61085;SDS011;46967;48.876;2.136;2022-12-29T14:04:34;15.57;;;2.25;;
61085;SDS011;46967;48.876;2.136;2022-12-29T14:07:03;10.23;;;1.77;;
61085;SDS011;46967;48.876;2.136;2022-12-29T14:12:20;14.45;;;3.15;;
61085;SDS011;46967;48.876;2.136;2022-12-29T14:14:46;18.83;;;2.40;;
61085;SDS011;46967;48.876;2.136;2022-12-29T14:17:12;12.00;;;1.88;;
61085;SDS011;46967;48.876;2.136;2022-12-29T14:19:41;12.55;;;2.22;;
61085;SDS011;46967;48.876;2.136;2022-12-29T14:22:08;14.48;;;2.25;;
61085;SDS011;46967;48.876;2.136;2022-12-29T14:27:09;15.07;;;2.00;;
61085;SDS011;46967;48.876;2.136;2022-12-29T14:29:50;13.27;;;1.80;;
61085;SDS011;46967;48.876;2.136;2022-12-29T14:34:51;11.48;;;1.90;;
61085;SDS011;46967;48.876;2.136;2022-12-29T14:37:27;18.25;;;2.30;;
61085;SDS011;46967;48.876;2.136;2022-12-29T14:42:37;13.38;;;2.05;;
61085;SDS011;46967;48.876;2.136;2022-12-29T14:45:06;14.27;;;1.98;;
61085;SDS011;46967;48.876;2.136;2022-12-29T14:47:38;15.98;;;2.22;;
61085;SDS011;46967;48.876;2.136;2022-12-29T14:50:22;12.15;;;2.78;;
61085;SDS011;46967;48.876;2.136;2022-12-29T14:55:29;12.43;;;1.92;;
61085;SDS011;46967;48.876;2.136;2022-12-29T14:58:05;14.00;;;2.70;;
61085;SDS011;46967;48.876;2.136;2022-12-29T15:00:51;9.88;;;2.10;;
61085;SDS011;46967;48.876;2.136;2022-12-29T15:03:24;11.15;;;2.08;;
61085;SDS011;46967;48.876;2.136;2022-12-29T15:06:10;14.57;;;2.92;;
61085;SDS011;46967;48.876;2.136;2022-12-29T15:08:39;11.60;;;1.98;;
61085;SDS011;46967;48.876;2.136;2022-12-29T15:11:23;9.80;;;1.60;;
61085;SDS011;46967;48.876;2.136;2022-12-29T15:17:01;16.75;;;2.00;;
61085;SDS011;46967;48.876;2.136;2022-12-29T15:19:34;11.48;;;2.00;;
61085;SDS011;46967;48.876;2.136;2022-12-29T15:22:01;11.88;;;1.80;;
61085;SDS011;46967;48.876;2.136;2022-12-29T15:24:27;12.57;;;1.98;;
61085;SDS011;46967;48.876;2.136;2022-12-29T15:26:53;13.50;;;1.73;;
61085;SDS011;46967;48.876;2.136;2022-12-29T15:29:30;8.10;;;1.73;;
61085;SDS011;46967;48.876;2.136;2022-12-29T15:34:40;9.10;;;2.33;;
61085;SDS011;46967;48.876;2.136;2022-12-29T15:37:06;11.18;;;2.00;;
61085;SDS011;46967;48.876;2.136;2022-12-29T15:39:32;10.00;;;1.95;;
61085;SDS011;46967;48.876;2.136;2022-12-29T15:42:02;14.80;;;2.28;;
61085;SDS011;46967;48.876;2.136;2022-12-29T15:44:41;11.63;;;2.13;;
61085;SDS011;46967;48.876;2.136;2022-12-29T15:47:12;11.10;;;1.60;;
61085;SDS011;46967;48.876;2.136;2022-12-29T15:49:45;10.10;;;1.65;;
61085;SDS011;46967;48.876;2.136;2022-12-29T15:52:17;8.13;;;1.45;;
61085;SDS011;46967;48.876;2.136;2022-12-29T15:54:44;13.93;;;2.75;;
61085;SDS011;46967;48.876;2.136;2022-12-29T15:59:46;16.13;;;2.33;;
61085;SDS011;46967;48.876;2.136;2022-12-29T16:02:13;10.18;;;2.50;;
61085;SDS011;46967;48.876;2.136;2022-12-29T16:04:39;10.95;;;2.00;;
61085;SDS011;46967;48.876;2.136;2022-12-29T16:07:06;12.63;;;1.92;;
61085;SDS011;46967;48.876;2.136;2022-12-29T16:09:58;6.82;;;1.45;;
61085;SDS011;46967;48.876;2.136;2022-12-29T16:12:34;10.10;;;1.60;;
61085;SDS011;46967;48.876;2.136;2022-12-29T16:15:02;9.43;;;1.73;;
61085;SDS011;46967;48.876;2.136;2022-12-29T16:17:30;9.70;;;1.90;;
61085;SDS011;46967;48.876;2.136;2022-12-29T16:20:00;7.78;;;1.60;;
61085;SDS011;46967;48.876;2.136;2022-12-29T16:22:32;9.25;;;1.80;;
61085;SDS011;46967;48.876;2.136;2022-12-29T16:25:03;13.63;;;2.35;;
61085;SDS011;46967;48.876;2.136;2022-12-29T16:27:36;11.88;;;2.03;;
61085;SDS011;46967;48.876;2.136;2022-12-29T16:30:25;11.05;;;1.83;;
61085;SDS011;46967;48.876;2.136;2022-12-29T16:32:55;11.55;;;1.98;;
61085;SDS011;46967;48.876;2.136;2022-12-29T16:38:12;12.00;;;1.73;;
61085;SDS011;46967;48.876;2.136;2022-12-29T16:40:49;12.20;;;2.20;;
61085;SDS011;46967;48.876;2.136;2022-12-29T16:43:22;10.52;;;1.80;;
61085;SDS011;46967;48.876;2.136;2022-12-29T16:48:24;8.95;;;1.90;;
61085;SDS011;46967;48.876;2.136;2022-12-29T16:50:52;10.30;;;1.65;;
61085;SDS011;46967;48.876;2.136;2022-12-29T16:53:28;9.82;;;1.88;;
61085;SDS011;46967;48.876;2.136;2022-12-29T16:55:57;13.90;;;2.50;;
61085;SDS011;46967;48.876;2.136;2022-12-29T17:00:55;10.52;;;2.30;;
61085;SDS011;46967;48.876;2.136;2022-12-29T17:03:46;11.50;;;3.15;;
61085;SDS011;46967;48.876;2.136;2022-12-29T17:06:20;11.23;;;2.60;;
61085;SDS011;46967;48.876;2.136;2022-12-29T17:08:47;10.05;;;2.00;;
61085;SDS011;46967;48.876;2.136;2022-12-29T17:11:21;8.50;;;2.13;;
61085;SDS011;46967;48.876;2.136;2022-12-29T17:17:11;12.48;;;2.38;;
61085;SDS011;46967;48.876;2.136;2022-12-29T17:19:39;10.77;;;2.17;;
61085;SDS011;46967;48.876;2.136;2022-12-29T17:22:10;16.58;;;2.88;;
61085;SDS011;46967;48.876;2.136;2022-12-29T17:24:39;8.18;;;2.60;;
61085;SDS011;46967;48.876;2.136;2022-12-29T17:27:05;11.20;;;2.75;;
61085;SDS011;46967;48.876;2.136;2022-12-29T17:29:35;15.00;;;2.70;;
61085;SDS011;46967;48.876;2.136;2022-12-29T17:32:04;12.23;;;2.72;;
61085;SDS011;46967;48.876;2.136;2022-12-29T17:34:32;12.13;;;2.80;;
61085;SDS011;46967;48.876;2.136;2022-12-29T17:36:58;10.98;;;2.65;;
61085;SDS011;46967;48.876;2.136;2022-12-29T17:39:23;7.90;;;2.40;;
61085;SDS011;46967;48.876;2.136;2022-12-29T17:41:48;14.93;;;2.70;;
61085;SDS011;46967;48.876;2.136;2022-12-29T17:44:17;9.05;;;2.35;;